Danville Regional Airport Danville US
ICAO: KDAN
IATA: DAN
Category: Medium
Scheduled Services: No

Elevation: 571 ft
TransAlt. 18000 ft.

Airport Communications:
ASOS:128.125
WASHINGTON CNTR:124.05
LEESBURG RDO:122.2
CTAF/UNICOM:123.05

KDAN Zoom In..

Runways:

(A) RW 02 length 6500 ft width 150 ft
ILS 110.70 / hdg 25

(B) RW 13 length 4020 ft width 100 ft
---- / hdg 134

(C) RW 20 length 6500 ft width 150 ft
---- / hdg 205

(D) RW 31 length 4020 ft width 100 ft
---- / hdg 314

Location; KDAN
Day. 24 / Time. 01.53 Zulu
* Altimeter: 29.92
* Temperature: 09° c. 48.2°f.
* Wind from: 280° Speed 06 kn.
Dewpoint: -01° c.
Visibility: 10 Statute Miles.
Clouds: Clear (automated report).

KDAN 240153Z AUTO 28006KT 10SM CLR 09/M01 A2992 RMK AO2 SLP126 T00941011


Wind From 280°
Speed 06 kn.

YouTube Music Video
 
jpsmedia.com for Web Design  worldairports.se 2018   terms of use